createdAt,value
2019-03-13T00:03:17.341Z,0.70
2019-03-13T00:08:24.055Z,0.60
2019-03-13T00:13:30.583Z,0.60
2019-03-13T00:18:37.226Z,0.70
2019-03-13T00:23:43.849Z,0.68
2019-03-13T00:28:50.469Z,0.60
2019-03-13T00:33:57.094Z,0.65
2019-03-13T00:39:04.855Z,0.78
2019-03-13T00:44:12.995Z,0.60
2019-03-13T00:49:19.529Z,0.62
2019-03-13T00:54:26.056Z,0.75
2019-03-13T00:59:32.678Z,0.50
2019-03-13T01:04:44.325Z,0.60
2019-03-13T01:09:51.401Z,0.60
2019-03-13T01:14:57.931Z,0.60
2019-03-13T01:20:05.374Z,0.60
2019-03-13T01:25:12.767Z,0.70
2019-03-13T01:30:19.377Z,0.60
2019-03-13T01:35:43.796Z,0.60
2019-03-13T01:40:50.341Z,0.70
2019-03-13T01:45:56.954Z,0.57
2019-03-13T01:51:03.499Z,0.60
2019-03-13T01:56:10.042Z,0.65
2019-03-13T02:01:16.681Z,0.65
2019-03-13T02:06:23.323Z,0.60
2019-03-13T02:11:29.859Z,0.90
2019-03-13T02:16:36.478Z,0.82
2019-03-13T02:21:43.129Z,0.70
2019-03-13T02:26:49.745Z,0.75
2019-03-13T02:31:57.185Z,0.80
2019-03-13T02:37:03.725Z,1.10
2019-03-13T02:42:10.344Z,0.85
2019-03-13T02:47:18.875Z,0.88
2019-03-13T02:52:25.155Z,1.20
2019-03-13T02:57:31.734Z,0.82
2019-03-13T03:02:48.756Z,0.80
2019-03-13T03:07:55.343Z,0.90
2019-03-13T03:13:01.973Z,1.27
2019-03-13T03:18:08.588Z,1.12
2019-03-13T03:23:15.139Z,1.15
2019-03-13T03:28:21.864Z,1.00
2019-03-13T03:33:28.414Z,1.50
2019-03-13T03:38:35.113Z,1.32
2019-03-13T03:43:42.044Z,1.05
2019-03-13T03:48:48.704Z,1.15
2019-03-13T03:53:55.243Z,1.00
2019-03-13T03:59:01.878Z,0.80
2019-03-13T04:04:08.519Z,1.40
2019-03-13T04:09:15.157Z,0.78
2019-03-13T04:14:21.812Z,0.60
2019-03-13T04:19:28.246Z,0.80
2019-03-13T04:24:34.863Z,0.75
2019-03-13T04:29:41.552Z,1.50
2019-03-13T04:34:48.083Z,1.42
2019-03-13T04:39:54.493Z,1.40
2019-03-13T04:45:00.967Z,1.80
2019-03-13T04:50:08.976Z,2.10
2019-03-13T04:55:16.315Z,2.17
2019-03-13T05:00:22.936Z,2.47
2019-03-13T05:05:56.782Z,2.60
2019-03-13T05:11:03.451Z,2.62
2019-03-13T05:16:09.992Z,2.70
2019-03-13T05:21:16.537Z,2.95
2019-03-13T05:26:23.088Z,2.50
2019-03-13T05:31:29.632Z,2.67
2019-03-13T05:36:36.259Z,2.80
2019-03-13T05:41:42.850Z,2.80
2019-03-13T05:46:49.374Z,1.50
2019-03-13T05:51:55.927Z,0.90
2019-03-13T05:57:02.327Z,0.90
2019-03-13T06:02:08.933Z,1.00
2019-03-13T06:07:15.508Z,0.90
2019-03-13T06:12:21.986Z,0.90
2019-03-13T06:17:28.458Z,0.88
2019-03-13T06:22:35.009Z,0.80
2019-03-13T06:27:41.609Z,0.93
2019-03-13T06:32:48.301Z,1.20
2019-03-13T06:37:54.702Z,0.90
2019-03-13T06:43:01.248Z,1.05
2019-03-13T06:48:07.863Z,0.82
2019-03-13T06:53:14.339Z,1.00
2019-03-13T06:58:30.774Z,1.00
2019-03-13T07:03:46.319Z,1.02
2019-03-13T07:09:17.932Z,0.80
2019-03-13T07:14:46.546Z,0.80
2019-03-13T07:20:10.695Z,0.80
2019-03-13T07:25:42.004Z,0.88
2019-03-13T07:30:56.915Z,0.62
2019-03-13T07:36:10.585Z,0.65
2019-03-13T07:41:51.122Z,0.70
2019-03-13T07:47:16.379Z,0.65
2019-03-13T07:52:50.945Z,0.40
2019-03-13T07:58:22.328Z,0.60
2019-03-13T08:03:46.789Z,0.72
2019-03-13T08:09:12.343Z,0.50
2019-03-13T08:14:27.608Z,0.60
2019-03-13T08:19:51.794Z,0.50
2019-03-13T08:25:29.607Z,0.40
2019-03-13T08:31:01.284Z,0.65
2019-03-13T08:36:18.253Z,0.50
2019-03-13T08:41:35.167Z,0.40
2019-03-13T08:47:00.676Z,0.40
2019-03-13T08:52:26.122Z,0.60
2019-03-13T08:57:43.874Z,0.50
2019-03-13T09:03:27.677Z,0.57
2019-03-13T09:08:46.689Z,0.37
2019-03-13T09:14:13.375Z,0.30
2019-03-13T09:19:39.887Z,0.50
2019-03-13T09:24:53.554Z,0.45
2019-03-13T09:30:18.107Z,0.80
2019-03-13T09:35:52.462Z,0.60
2019-03-13T09:41:12.687Z,0.40
2019-03-13T09:46:44.580Z,0.53
2019-03-13T09:52:10.483Z,0.60
2019-03-13T09:57:51.372Z,0.60
2019-03-13T10:03:18.986Z,0.72
2019-03-13T10:08:37.451Z,0.70
2019-03-13T10:14:18.043Z,0.68
2019-03-13T10:19:49.815Z,0.50
2019-03-13T10:25:02.947Z,0.70
2019-03-13T10:30:21.915Z,0.40
2019-03-13T10:35:35.873Z,0.60
2019-03-13T10:46:29.317Z,0.68
2019-03-13T10:51:54.908Z,0.78
2019-03-13T10:57:10.793Z,0.53
2019-03-13T11:02:36.312Z,0.68
2019-03-13T11:08:00.649Z,0.70
2019-03-13T11:13:25.222Z,0.78
2019-03-13T11:18:40.144Z,0.60
2019-03-13T11:24:14.752Z,0.68
2019-03-13T11:29:33.053Z,0.80
2019-03-13T11:34:52.023Z,0.82
2019-03-13T11:40:06.487Z,0.60
2019-03-13T11:45:35.250Z,0.75
2019-03-13T11:51:03.699Z,0.80
2019-03-13T11:56:28.092Z,0.80
2019-03-13T12:01:45.946Z,0.80
2019-03-13T12:07:24.407Z,0.70
2019-03-13T12:12:49.934Z,0.65
2019-03-13T12:18:14.641Z,0.70
2019-03-13T12:23:32.063Z,0.90
2019-03-13T12:28:51.141Z,0.70
2019-03-13T12:34:08.888Z,0.72
2019-03-13T12:39:21.025Z,0.70
2019-03-13T12:44:39.263Z,0.60
2019-03-13T12:50:07.535Z,0.68
2019-03-13T12:55:42.184Z,0.80
2019-03-13T13:01:12.022Z,0.80
2019-03-13T13:06:34.284Z,0.50
2019-03-13T13:11:58.687Z,0.80
2019-03-13T13:17:24.310Z,0.50
2019-03-13T13:22:30.870Z,0.85
2019-03-13T13:27:37.524Z,0.70
2019-03-13T13:32:45.249Z,0.60
2019-03-13T13:37:51.706Z,0.70
2019-03-13T13:42:58.262Z,0.42
2019-03-13T13:48:04.877Z,0.60
2019-03-13T13:53:11.434Z,0.50
2019-03-13T13:58:18.053Z,0.70
2019-03-13T14:03:24.518Z,0.50
2019-03-13T14:08:31.155Z,0.70
2019-03-13T14:13:37.890Z,0.65
2019-03-13T14:18:44.320Z,0.60
2019-03-13T14:23:50.959Z,0.70
2019-03-13T14:28:58.069Z,0.80
2019-03-13T14:34:04.809Z,0.60
2019-03-13T14:39:11.367Z,0.60
2019-03-13T14:44:18.788Z,0.40
2019-03-13T14:49:25.428Z,0.50
2019-03-13T14:54:31.964Z,0.60
2019-03-13T14:59:38.569Z,0.57
2019-03-13T15:04:45.262Z,0.80
2019-03-13T15:09:51.891Z,0.40
2019-03-13T15:14:58.369Z,0.62
2019-03-13T15:20:05.811Z,0.88
2019-03-13T15:25:13.119Z,0.68
2019-03-13T15:30:21.673Z,0.72
2019-03-13T15:35:28.351Z,0.55
2019-03-13T15:40:34.958Z,0.60
2019-03-13T15:45:41.554Z,0.65
2019-03-13T15:50:49.237Z,0.72
2019-03-13T15:55:55.841Z,0.60
2019-03-13T16:01:02.464Z,0.72
2019-03-13T16:06:09.111Z,0.70
2019-03-13T16:11:15.682Z,0.80
2019-03-13T16:16:22.483Z,0.80
2019-03-13T16:21:29.354Z,0.90
2019-03-13T16:26:38.136Z,0.82
2019-03-13T16:31:44.823Z,0.50
2019-03-13T16:36:52.734Z,0.78
2019-03-13T16:42:00.486Z,0.85
2019-03-13T16:47:09.542Z,0.60
2019-03-13T16:52:16.388Z,0.88
2019-03-13T16:57:23.481Z,0.50
2019-03-13T17:02:30.103Z,0.70
2019-03-13T17:07:36.752Z,0.60
2019-03-13T17:12:45.006Z,0.70
2019-03-13T17:17:51.745Z,0.50
2019-03-13T17:22:58.436Z,0.65
2019-03-13T17:28:05.533Z,0.57
2019-03-13T17:33:12.342Z,0.70
2019-03-13T17:38:18.950Z,0.80
2019-03-13T17:43:38.082Z,0.78
2019-03-13T17:48:34.032Z,0.88
2019-03-13T17:53:41.747Z,1.10
2019-03-13T17:58:48.373Z,0.78
2019-03-13T18:03:54.867Z,0.95
2019-03-13T18:09:03.950Z,1.10
2019-03-13T18:14:11.852Z,0.98
2019-03-13T18:19:18.410Z,1.32
2019-03-13T18:24:26.240Z,0.90
2019-03-13T18:29:33.145Z,1.10
2019-03-13T18:34:39.704Z,0.80
2019-03-13T18:39:46.335Z,1.00
2019-03-13T18:44:52.912Z,1.00
2019-03-13T18:49:59.577Z,0.72
2019-03-13T18:55:07.043Z,1.10
2019-03-13T19:00:21.627Z,0.72
2019-03-13T19:05:28.709Z,0.93
2019-03-13T19:10:35.697Z,0.98
2019-03-13T19:15:42.299Z,0.65
2019-03-13T19:20:48.963Z,0.70
2019-03-13T19:25:56.651Z,0.60
2019-03-13T19:31:03.339Z,0.50
2019-03-13T19:36:10.222Z,0.65
2019-03-13T19:41:16.781Z,0.75
2019-03-13T19:46:23.403Z,0.80
2019-03-13T19:51:30.689Z,0.70
2019-03-13T19:56:37.252Z,1.02
2019-03-13T20:01:43.886Z,0.78
2019-03-13T20:06:50.367Z,0.80
2019-03-13T20:11:56.989Z,0.70
2019-03-13T20:17:03.534Z,1.00
2019-03-13T20:22:10.151Z,0.82
2019-03-13T20:27:16.781Z,0.90
2019-03-13T20:32:23.330Z,1.10
2019-03-13T20:37:29.926Z,1.00
2019-03-13T20:42:36.398Z,1.07
2019-03-13T20:47:43.540Z,1.47
2019-03-13T20:52:50.364Z,1.22
2019-03-13T20:57:56.945Z,1.02
2019-03-13T21:03:03.549Z,1.27
2019-03-13T21:08:10.100Z,1.05
2019-03-13T21:13:16.769Z,1.20
2019-03-13T21:18:23.318Z,1.30
2019-03-13T21:23:29.797Z,0.98
2019-03-13T21:28:36.355Z,1.00
2019-03-13T21:33:44.051Z,1.20
2019-03-13T21:38:50.661Z,0.93
2019-03-13T21:43:57.275Z,0.90
2019-03-13T21:49:03.897Z,0.90
2019-03-13T21:54:10.513Z,1.10
2019-03-13T21:59:17.260Z,0.95
2019-03-13T22:04:24.635Z,0.70
2019-03-13T22:09:31.566Z,0.90
2019-03-13T22:14:38.752Z,0.95
2019-03-13T22:19:45.333Z,0.70
2019-03-13T22:24:51.962Z,0.85
2019-03-13T22:29:58.518Z,1.00
2019-03-13T22:35:05.143Z,0.95
2019-03-13T22:40:13.481Z,0.90
2019-03-13T22:45:20.120Z,0.55
2019-03-13T22:50:26.745Z,0.72
2019-03-13T22:55:33.368Z,0.80
2019-03-13T23:01:07.391Z,0.80
2019-03-13T23:06:15.612Z,0.90
2019-03-13T23:11:22.268Z,1.00
2019-03-13T23:16:28.908Z,0.90
2019-03-13T23:21:35.451Z,0.90
2019-03-13T23:26:42.016Z,1.02
2019-03-13T23:31:48.478Z,0.90
2019-03-13T23:36:55.034Z,1.02
2019-03-13T23:42:01.652Z,0.90
2019-03-13T23:47:08.270Z,1.00
2019-03-13T23:52:14.827Z,0.93
2019-03-13T23:57:21.288Z,1.15
